sensor_id;sensor_type;location;lat;lon;timestamp;pressure;altitude;pressure_sealevel;temperature;humidity
61786;BME280;47692;53.714;11.372;2022-11-20T00:00:48;100553.50;;;-0.11;100.00
61786;BME280;47692;53.714;11.372;2022-11-20T00:03:13;100559.47;;;-0.12;100.00
61786;BME280;47692;53.714;11.372;2022-11-20T00:05:39;100551.88;;;-0.06;100.00
61786;BME280;47692;53.714;11.372;2022-11-20T00:08:04;100551.84;;;-0.07;100.00
61786;BME280;47692;53.714;11.372;2022-11-20T00:10:30;100540.66;;;-0.11;100.00
61786;BME280;47692;53.714;11.372;2022-11-20T00:12:57;100542.41;;;-0.08;100.00
61786;BME280;47692;53.714;11.372;2022-11-20T00:15:23;100532.13;;;-0.10;100.00
61786;BME280;47692;53.714;11.372;2022-11-20T00:17:48;100533.78;;;-0.12;100.00
61786;BME280;47692;53.714;11.372;2022-11-20T00:20:14;100532.84;;;-0.17;100.00
61786;BME280;47692;53.714;11.372;2022-11-20T00:22:39;100532.78;;;-0.20;100.00
61786;BME280;47692;53.714;11.372;2022-11-20T00:25:05;100534.59;;;-0.16;100.00
61786;BME280;47692;53.714;11.372;2022-11-20T00:27:30;100533.69;;;-0.18;100.00
61786;BME280;47692;53.714;11.372;2022-11-20T00:29:56;100531.97;;;-0.18;100.00
61786;BME280;47692;53.714;11.372;2022-11-20T00:32:21;100541.44;;;-0.15;100.00
61786;BME280;47692;53.714;11.372;2022-11-20T00:34:46;100541.44;;;-0.15;100.00
61786;BME280;47692;53.714;11.372;2022-11-20T00:37:12;100538.06;;;-0.12;100.00
61786;BME280;47692;53.714;11.372;2022-11-20T00:39:37;100541.44;;;-0.15;100.00
61786;BME280;47692;53.714;11.372;2022-11-20T00:42:02;100544.00;;;-0.15;100.00
61786;BME280;47692;53.714;11.372;2022-11-20T00:44:28;100544.84;;;-0.16;100.00
61786;BME280;47692;53.714;11.372;2022-11-20T00:46:53;100542.31;;;-0.14;100.00
61786;BME280;47692;53.714;11.372;2022-11-20T00:49:18;100543.22;;;-0.11;100.00
61786;BME280;47692;53.714;11.372;2022-11-20T00:51:43;100542.44;;;-0.07;100.00
61786;BME280;47692;53.714;11.372;2022-11-20T00:54:09;100534.75;;;-0.07;100.00
61786;BME280;47692;53.714;11.372;2022-11-20T00:56:34;100538.22;;;-0.05;100.00
61786;BME280;47692;53.714;11.372;2022-11-20T00:59:00;100541.66;;;-0.03;100.00
61786;BME280;47692;53.714;11.372;2022-11-20T01:01:26;100537.31;;;-0.05;100.00
61786;BME280;47692;53.714;11.372;2022-11-20T01:03:56;100530.50;;;-0.05;100.00
61786;BME280;47692;53.714;11.372;2022-11-20T01:06:25;100538.22;;;-0.05;100.00
61786;BME280;47692;53.714;11.372;2022-11-20T01:08:56;100536.38;;;-0.10;100.00
61786;BME280;47692;53.714;11.372;2022-11-20T01:11:25;100534.69;;;-0.10;100.00
61786;BME280;47692;53.714;11.372;2022-11-20T01:13:52;100534.75;;;-0.07;100.00
61786;BME280;47692;53.714;11.372;2022-11-20T01:16:20;100538.94;;;-0.12;100.00
61786;BME280;47692;53.714;11.372;2022-11-20T01:18:48;100532.91;;;-0.14;100.00
61786;BME280;47692;53.714;11.372;2022-11-20T01:21:18;100528.53;;;-0.20;100.00
61786;BME280;47692;53.714;11.372;2022-11-20T01:23:44;100532.84;;;-0.17;100.00
61786;BME280;47692;53.714;11.372;2022-11-20T01:26:15;100532.84;;;-0.17;100.00
61786;BME280;47692;53.714;11.372;2022-11-20T01:28:41;100526.78;;;-0.22;100.00
61786;BME280;47692;53.714;11.372;2022-11-20T01:31:27;100522.47;;;-0.23;100.00
61786;BME280;47692;53.714;11.372;2022-11-20T01:33:56;100526.00;;;-0.18;100.00
61786;BME280;47692;53.714;11.372;2022-11-20T01:36:23;100528.56;;;-0.17;100.00
61786;BME280;47692;53.714;11.372;2022-11-20T01:38:54;100512.38;;;-0.14;100.00
61786;BME280;47692;53.714;11.372;2022-11-20T01:41:21;100508.94;;;-0.16;100.00
61786;BME280;47692;53.714;11.372;2022-11-20T01:44:05;100505.50;;;-0.15;100.00
61786;BME280;47692;53.714;11.372;2022-11-20T01:46:35;100510.63;;;-0.15;100.00
61786;BME280;47692;53.714;11.372;2022-11-20T01:49:11;100507.94;;;-0.21;100.00
61786;BME280;47692;53.714;11.372;2022-11-20T01:51:50;100510.59;;;-0.18;100.00
61786;BME280;47692;53.714;11.372;2022-11-20T01:54:20;100502.16;;;-0.11;100.00
61786;BME280;47692;53.714;11.372;2022-11-20T01:56:48;100502.09;;;-0.14;100.00
61786;BME280;47692;53.714;11.372;2022-11-20T01:59:18;100500.44;;;-0.12;100.00
61786;BME280;47692;53.714;11.372;2022-11-20T02:01:44;100502.09;;;-0.14;100.00
61786;BME280;47692;53.714;11.372;2022-11-20T02:04:10;100494.28;;;-0.20;100.00
61786;BME280;47692;53.714;11.372;2022-11-20T02:06:45;100490.00;;;-0.21;100.00
61786;BME280;47692;53.714;11.372;2022-11-20T02:09:14;100494.25;;;-0.23;100.00
61786;BME280;47692;53.714;11.372;2022-11-20T02:11:39;100486.59;;;-0.20;100.00
61786;BME280;47692;53.714;11.372;2022-11-20T02:14:04;100490.00;;;-0.21;100.00
61786;BME280;47692;53.714;11.372;2022-11-20T02:16:34;100485.63;;;-0.27;100.00
61786;BME280;47692;53.714;11.372;2022-11-20T02:19:04;100476.22;;;-0.26;100.00
61786;BME280;47692;53.714;11.372;2022-11-20T02:21:40;100471.06;;;-0.29;100.00
61786;BME280;47692;53.714;11.372;2022-11-20T02:24:15;100466.84;;;-0.24;100.00
61786;BME280;47692;53.714;11.372;2022-11-20T02:26:54;100470.25;;;-0.25;100.00
61786;BME280;47692;53.714;11.372;2022-11-20T02:29:26;100458.31;;;-0.23;100.00
61786;BME280;47692;53.714;11.372;2022-11-20T02:31:52;100465.22;;;-0.21;100.00
61786;BME280;47692;53.714;11.372;2022-11-20T02:34:19;100471.16;;;-0.23;100.00
61786;BME280;47692;53.714;11.372;2022-11-20T02:36:44;100481.34;;;-0.26;100.00
61786;BME280;47692;53.714;11.372;2022-11-20T02:39:11;100475.38;;;-0.25;100.00
61786;BME280;47692;53.714;11.372;2022-11-20T02:41:38;100466.03;;;-0.23;100.00
61786;BME280;47692;53.714;11.372;2022-11-20T02:44:04;100462.53;;;-0.28;100.00
61786;BME280;47692;53.714;11.372;2022-11-20T02:46:30;100465.16;;;-0.24;100.00
61786;BME280;47692;53.714;11.372;2022-11-20T02:48:56;100473.75;;;-0.20;100.00
61786;BME280;47692;53.714;11.372;2022-11-20T02:51:22;100469.47;;;-0.21;100.00
61786;BME280;47692;53.714;11.372;2022-11-20T02:53:47;100473.75;;;-0.22;100.00
61786;BME280;47692;53.714;11.372;2022-11-20T02:56:13;100467.97;;;-0.10;100.00
61786;BME280;47692;53.714;11.372;2022-11-20T02:58:38;100469.56;;;-0.15;100.00
61786;BME280;47692;53.714;11.372;2022-11-20T03:01:04;100466.13;;;-0.17;100.00
61786;BME280;47692;53.714;11.372;2022-11-20T03:03:29;100465.31;;;-0.14;100.00
61786;BME280;47692;53.714;11.372;2022-11-20T03:05:54;100467.06;;;-0.12;100.00
61786;BME280;47692;53.714;11.372;2022-11-20T03:08:19;100461.03;;;-0.14;100.00
61786;BME280;47692;53.714;11.372;2022-11-20T03:10:45;100466.13;;;-0.17;100.00
61786;BME280;47692;53.714;11.372;2022-11-20T03:13:10;100462.72;;;-0.16;100.00
61786;BME280;47692;53.714;11.372;2022-11-20T03:15:36;100463.66;;;-0.11;100.00
61786;BME280;47692;53.714;11.372;2022-11-20T03:18:02;100459.41;;;-0.09;100.00
61786;BME280;47692;53.714;11.372;2022-11-20T03:20:27;100459.31;;;-0.15;100.00
61786;BME280;47692;53.714;11.372;2022-11-20T03:22:54;100464.44;;;-0.15;100.00
61786;BME280;47692;53.714;11.372;2022-11-20T03:25:20;100457.69;;;-0.10;100.00
61786;BME280;47692;53.714;11.372;2022-11-20T03:27:45;100460.28;;;-0.08;100.00
61786;BME280;47692;53.714;11.372;2022-11-20T03:30:11;100454.38;;;-0.03;100.00
61786;BME280;47692;53.714;11.372;2022-11-20T03:32:36;100449.22;;;-0.06;100.00
61786;BME280;47692;53.714;11.372;2022-11-20T03:35:02;100451.72;;;-0.09;100.00
61786;BME280;47692;53.714;11.372;2022-11-20T03:37:27;100445.75;;;-0.08;100.00
61786;BME280;47692;53.714;11.372;2022-11-20T03:39:52;100453.41;;;-0.09;100.00
61786;BME280;47692;53.714;11.372;2022-11-20T03:42:18;100453.34;;;-0.14;100.00
61786;BME280;47692;53.714;11.372;2022-11-20T03:45:02;100452.38;;;-0.22;100.00
61786;BME280;47692;53.714;11.372;2022-11-20T03:47:27;100446.34;;;-0.23;100.00
61786;BME280;47692;53.714;11.372;2022-11-20T03:49:52;100442.09;;;-0.22;100.00
61786;BME280;47692;53.714;11.372;2022-11-20T03:52:18;100441.22;;;-0.21;100.00
61786;BME280;47692;53.714;11.372;2022-11-20T03:54:43;100444.59;;;-0.25;100.00
61786;BME280;47692;53.714;11.372;2022-11-20T03:57:08;100438.66;;;-0.21;100.00
61786;BME280;47692;53.714;11.372;2022-11-20T03:59:34;100438.66;;;-0.21;100.00
61786;BME280;47692;53.714;11.372;2022-11-20T04:01:59;100442.94;;;-0.22;100.00
61786;BME280;47692;53.714;11.372;2022-11-20T04:04:24;100440.47;;;-0.17;100.00
61786;BME280;47692;53.714;11.372;2022-11-20T04:06:50;100435.25;;;-0.23;100.00
61786;BME280;47692;53.714;11.372;2022-11-20T04:09:15;100434.41;;;-0.22;100.00
61786;BME280;47692;53.714;11.372;2022-11-20T04:11:40;100437.69;;;-0.29;100.00
61786;BME280;47692;53.714;11.372;2022-11-20T04:14:11;100431.72;;;-0.28;100.00
61786;BME280;47692;53.714;11.372;2022-11-20T04:16:37;100430.03;;;-0.26;100.00
61786;BME280;47692;53.714;11.372;2022-11-20T04:19:05;100425.78;;;-0.27;100.00
61786;BME280;47692;53.714;11.372;2022-11-20T04:21:31;100421.50;;;-0.25;100.00
61786;BME280;47692;53.714;11.372;2022-11-20T04:23:57;100423.28;;;-0.21;100.00
61786;BME280;47692;53.714;11.372;2022-11-20T04:26:24;100424.19;;;-0.18;100.00
61786;BME280;47692;53.714;11.372;2022-11-20T04:28:51;100418.16;;;-0.21;100.00
61786;BME280;47692;53.714;11.372;2022-11-20T04:31:19;100424.97;;;-0.23;100.00
61786;BME280;47692;53.714;11.372;2022-11-20T04:33:45;100418.94;;;-0.25;100.00
61786;BME280;47692;53.714;11.372;2022-11-20T04:36:15;100425.84;;;-0.21;100.00
61786;BME280;47692;53.714;11.372;2022-11-20T04:38:41;100422.34;;;-0.26;100.00
61786;BME280;47692;53.714;11.372;2022-11-20T04:41:09;100416.38;;;-0.25;100.00
61786;BME280;47692;53.714;11.372;2022-11-20T04:43:38;100418.94;;;-0.25;100.00
61786;BME280;47692;53.714;11.372;2022-11-20T04:46:03;100409.56;;;-0.23;100.00
61786;BME280;47692;53.714;11.372;2022-11-20T04:48:29;100406.13;;;-0.25;100.00
61786;BME280;47692;53.714;11.372;2022-11-20T04:50:55;100406.19;;;-0.22;100.00
61786;BME280;47692;53.714;11.372;2022-11-20T04:53:21;100397.63;;;-0.21;100.00
61786;BME280;47692;53.714;11.372;2022-11-20T04:55:47;100390.69;;;-0.28;100.00
61786;BME280;47692;53.714;11.372;2022-11-20T04:58:13;100397.53;;;-0.27;100.00
61786;BME280;47692;53.714;11.372;2022-11-20T05:00:39;100403.56;;;-0.24;100.00
61786;BME280;47692;53.714;11.372;2022-11-20T05:03:04;100393.25;;;-0.27;100.00
61786;BME280;47692;53.714;11.372;2022-11-20T05:05:30;100396.75;;;-0.23;100.00
61786;BME280;47692;53.714;11.372;2022-11-20T05:07:58;100398.41;;;-0.27;100.00
61786;BME280;47692;53.714;11.372;2022-11-20T05:10:25;100399.25;;;-0.26;100.00
61786;BME280;47692;53.714;11.372;2022-11-20T05:12:50;100394.13;;;-0.26;100.00
61786;BME280;47692;53.714;11.372;2022-11-20T05:15:15;100391.59;;;-0.25;100.00
61786;BME280;47692;53.714;11.372;2022-11-20T05:17:41;100389.84;;;-0.27;100.00
61786;BME280;47692;53.714;11.372;2022-11-20T05:20:07;100393.31;;;-0.24;100.00
61786;BME280;47692;53.714;11.372;2022-11-20T05:22:32;100390.69;;;-0.28;100.00
61786;BME280;47692;53.714;11.372;2022-11-20T05:24:57;100389.75;;;-0.32;100.00
61786;BME280;47692;53.714;11.372;2022-11-20T05:27:23;100394.78;;;-0.38;100.00
61786;BME280;47692;53.714;11.372;2022-11-20T05:29:48;100390.50;;;-0.38;100.00
61786;BME280;47692;53.714;11.372;2022-11-20T05:32:13;100388.06;;;-0.31;100.00
61786;BME280;47692;53.714;11.372;2022-11-20T05:34:39;100387.19;;;-0.34;100.00
61786;BME280;47692;53.714;11.372;2022-11-20T05:37:04;100389.06;;;-0.23;100.00
61786;BME280;47692;53.714;11.372;2022-11-20T05:39:29;100385.66;;;-0.22;100.00
61786;BME280;47692;53.714;11.372;2022-11-20T05:41:55;100388.06;;;-0.31;100.00
61786;BME280;47692;53.714;11.372;2022-11-20T05:44:39;100378.59;;;-0.36;100.00
61786;BME280;47692;53.714;11.372;2022-11-20T05:47:05;100376.91;;;-0.34;100.00
61786;BME280;47692;53.714;11.372;2022-11-20T05:49:30;100370.06;;;-0.35;100.00
61786;BME280;47692;53.714;11.372;2022-11-20T05:51:56;100366.69;;;-0.30;100.00
61786;BME280;47692;53.714;11.372;2022-11-20T05:54:21;100364.13;;;-0.32;100.00
61786;BME280;47692;53.714;11.372;2022-11-20T05:56:46;100364.22;;;-0.26;100.00
61786;BME280;47692;53.714;11.372;2022-11-20T05:59:11;100359.09;;;-0.23;100.00
61786;BME280;47692;53.714;11.372;2022-11-20T06:01:37;100353.88;;;-0.30;100.00
61786;BME280;47692;53.714;11.372;2022-11-20T06:04:02;100356.50;;;-0.27;100.00
61786;BME280;47692;53.714;11.372;2022-11-20T06:06:28;100353.06;;;-0.26;100.00
61786;BME280;47692;53.714;11.372;2022-11-20T06:08:54;100355.72;;;-0.22;100.00
61786;BME280;47692;53.714;11.372;2022-11-20T06:11:20;100354.97;;;-0.16;100.00
61786;BME280;47692;53.714;11.372;2022-11-20T06:13:46;100359.22;;;-0.15;100.00
61786;BME280;47692;53.714;11.372;2022-11-20T06:16:14;100354.84;;;-0.22;100.00
61786;BME280;47692;53.714;11.372;2022-11-20T06:18:39;100348.81;;;-0.26;100.00
61786;BME280;47692;53.714;11.372;2022-11-20T06:21:07;100347.91;;;-0.29;100.00
61786;BME280;47692;53.714;11.372;2022-11-20T06:23:34;100347.00;;;-0.31;100.00
61786;BME280;47692;53.714;11.372;2022-11-20T06:26:11;100347.91;;;-0.29;100.00
61786;BME280;47692;53.714;11.372;2022-11-20T06:28:37;100345.28;;;-0.33;100.00
61786;BME280;47692;53.714;11.372;2022-11-20T06:31:02;100345.34;;;-0.28;100.00
61786;BME280;47692;53.714;11.372;2022-11-20T06:33:28;100352.16;;;-0.30;100.00
61786;BME280;47692;53.714;11.372;2022-11-20T06:35:56;100349.47;;;-0.38;100.00
61786;BME280;47692;53.714;11.372;2022-11-20T06:38:23;100354.66;;;-0.35;100.00
61786;BME280;47692;53.714;11.372;2022-11-20T06:40:48;100343.50;;;-0.37;100.00
61786;BME280;47692;53.714;11.372;2022-11-20T06:43:13;100346.13;;;-0.34;100.00
61786;BME280;47692;53.714;11.372;2022-11-20T06:45:39;100342.66;;;-0.36;100.00
61786;BME280;47692;53.714;11.372;2022-11-20T06:48:04;100348.72;;;-0.32;100.00
61786;BME280;47692;53.714;11.372;2022-11-20T06:50:30;100341.09;;;-0.27;100.00
61786;BME280;47692;53.714;11.372;2022-11-20T06:52:55;100346.25;;;-0.24;100.00
61786;BME280;47692;53.714;11.372;2022-11-20T06:55:21;100339.47;;;-0.22;100.00
61786;BME280;47692;53.714;11.372;2022-11-20T06:57:46;100344.50;;;-0.28;100.00
61786;BME280;47692;53.714;11.372;2022-11-20T07:00:12;100347.09;;;-0.27;100.00
61786;BME280;47692;53.714;11.372;2022-11-20T07:02:37;100347.06;;;-0.28;100.00
61786;BME280;47692;53.714;11.372;2022-11-20T07:05:03;100341.13;;;-0.24;100.00
61786;BME280;47692;53.714;11.372;2022-11-20T07:07:28;100337.66;;;-0.26;100.00
61786;BME280;47692;53.714;11.372;2022-11-20T07:09:54;100336.81;;;-0.27;100.00
61786;BME280;47692;53.714;11.372;2022-11-20T07:12:19;100338.56;;;-0.24;100.00
61786;BME280;47692;53.714;11.372;2022-11-20T07:14:44;100340.28;;;-0.25;100.00
61786;BME280;47692;53.714;11.372;2022-11-20T07:17:10;100338.56;;;-0.26;100.00
61786;BME280;47692;53.714;11.372;2022-11-20T07:19:36;100335.16;;;-0.23;100.00
61786;BME280;47692;53.714;11.372;2022-11-20T07:22:01;100331.78;;;-0.22;100.00
61786;BME280;47692;53.714;11.372;2022-11-20T07:24:26;100334.34;;;-0.22;100.00
61786;BME280;47692;53.714;11.372;2022-11-20T07:26:52;100335.19;;;-0.22;100.00
61786;BME280;47692;53.714;11.372;2022-11-20T07:29:17;100339.56;;;-0.16;100.00
61786;BME280;47692;53.714;11.372;2022-11-20T07:31:42;100331.06;;;-0.12;100.00
61786;BME280;47692;53.714;11.372;2022-11-20T07:34:08;100330.22;;;-0.09;100.00
61786;BME280;47692;53.714;11.372;2022-11-20T07:36:34;100334.53;;;-0.07;100.00
61786;BME280;47692;53.714;11.372;2022-11-20T07:38:59;100331.06;;;-0.12;100.00
61786;BME280;47692;53.714;11.372;2022-11-20T07:41:24;100336.03;;;-0.21;100.00
61786;BME280;47692;53.714;11.372;2022-11-20T07:43:50;100334.38;;;-0.19;100.00
61786;BME280;47692;53.714;11.372;2022-11-20T07:46:15;100326.66;;;-0.21;100.00
61786;BME280;47692;53.714;11.372;2022-11-20T07:48:40;100324.16;;;-0.16;100.00
61786;BME280;47692;53.714;11.372;2022-11-20T07:51:06;100331.00;;;-0.15;100.00
61786;BME280;47692;53.714;11.372;2022-11-20T07:53:31;100327.50;;;-0.20;100.00
61786;BME280;47692;53.714;11.372;2022-11-20T07:56:00;100325.78;;;-0.21;100.00
61786;BME280;47692;53.714;11.372;2022-11-20T07:58:28;100327.47;;;-0.23;100.00
61786;BME280;47692;53.714;11.372;2022-11-20T08:00:54;100335.19;;;-0.22;100.00
61786;BME280;47692;53.714;11.372;2022-11-20T08:03:19;100332.59;;;-0.23;100.00
61786;BME280;47692;53.714;11.372;2022-11-20T08:05:44;100337.81;;;-0.17;100.00
61786;BME280;47692;53.714;11.372;2022-11-20T08:08:10;100337.72;;;-0.25;100.00
61786;BME280;47692;53.714;11.372;2022-11-20T08:10:35;100335.25;;;-0.17;100.00
61786;BME280;47692;53.714;11.372;2022-11-20T08:13:00;100335.34;;;-0.12;100.00
61786;BME280;47692;53.714;11.372;2022-11-20T08:15:48;100332.78;;;-0.11;100.00
61786;BME280;47692;53.714;11.372;2022-11-20T08:18:15;100325.13;;;-0.08;100.00
61786;BME280;47692;53.714;11.372;2022-11-20T08:20:40;100325.88;;;-0.15;100.00
61786;BME280;47692;53.714;11.372;2022-11-20T08:23:07;100319.06;;;-0.13;100.00
61786;BME280;47692;53.714;11.372;2022-11-20T08:25:34;100322.47;;;-0.14;100.00
61786;BME280;47692;53.714;11.372;2022-11-20T08:28:01;100339.56;;;-0.16;100.00
61786;BME280;47692;53.714;11.372;2022-11-20T08:30:28;100327.56;;;-0.17;100.00
61786;BME280;47692;53.714;11.372;2022-11-20T08:32:54;100327.59;;;-0.14;100.00
61786;BME280;47692;53.714;11.372;2022-11-20T08:35:21;100330.22;;;-0.11;100.00
61786;BME280;47692;53.714;11.372;2022-11-20T08:37:46;100328.50;;;-0.10;100.00
61786;BME280;47692;53.714;11.372;2022-11-20T08:40:12;100337.09;;;-0.08;100.00
61786;BME280;47692;53.714;11.372;2022-11-20T08:42:45;100331.16;;;-0.06;100.00
61786;BME280;47692;53.714;11.372;2022-11-20T08:45:11;100332.81;;;-0.08;100.00
61786;BME280;47692;53.714;11.372;2022-11-20T08:47:36;100327.75;;;-0.05;100.00
61786;BME280;47692;53.714;11.372;2022-11-20T08:50:02;100326.00;;;-0.06;100.00
61786;BME280;47692;53.714;11.372;2022-11-20T08:52:27;100327.75;;;-0.05;100.00
61786;BME280;47692;53.714;11.372;2022-11-20T08:54:53;100342.25;;;-0.05;100.00
61786;BME280;47692;53.714;11.372;2022-11-20T08:57:18;100327.69;;;-0.08;100.00
61786;BME280;47692;53.714;11.372;2022-11-20T08:59:43;100330.22;;;-0.09;100.00
61786;BME280;47692;53.714;11.372;2022-11-20T09:02:09;100331.88;;;-0.13;100.00
61786;BME280;47692;53.714;11.372;2022-11-20T09:04:34;100326.00;;;-0.06;100.00
61786;BME280;47692;53.714;11.372;2022-11-20T09:07:00;100330.22;;;-0.09;100.00
61786;BME280;47692;53.714;11.372;2022-11-20T09:09:25;100324.28;;;-0.07;100.00
61786;BME280;47692;53.714;11.372;2022-11-20T09:11:50;100325.91;;;-0.13;100.00
61786;BME280;47692;53.714;11.372;2022-11-20T09:14:16;100324.09;;;-0.19;100.00
61786;BME280;47692;53.714;11.372;2022-11-20T09:16:41;100321.59;;;-0.16;100.00
61786;BME280;47692;53.714;11.372;2022-11-20T09:19:06;100313.84;;;-0.19;100.00
61786;BME280;47692;53.714;11.372;2022-11-20T09:21:32;100317.22;;;-0.23;100.00
61786;BME280;47692;53.714;11.372;2022-11-20T09:23:57;100311.19;;;-0.24;100.00
61786;BME280;47692;53.714;11.372;2022-11-20T09:26:22;100320.59;;;-0.24;100.00
61786;BME280;47692;53.714;11.372;2022-11-20T09:28:48;100324.00;;;-0.25;100.00
61786;BME280;47692;53.714;11.372;2022-11-20T09:31:24;100324.91;;;-0.22;100.00
61786;BME280;47692;53.714;11.372;2022-11-20T09:33:51;100326.47;;;-0.33;100.00
61786;BME280;47692;53.714;11.372;2022-11-20T09:36:16;100323.88;;;-0.35;100.00
61786;BME280;47692;53.714;11.372;2022-11-20T09:38:46;100320.41;;;-0.37;100.00
61786;BME280;47692;53.714;11.372;2022-11-20T09:47:03;100322.19;;;-0.33;100.00
61786;BME280;47692;53.714;11.372;2022-11-20T09:49:55;100319.59;;;-0.36;100.00
61786;BME280;47692;53.714;11.372;2022-11-20T09:55:22;100314.53;;;-0.31;100.00
61786;BME280;47692;53.714;11.372;2022-11-20T09:57:51;100312.75;;;-0.35;100.00
61786;BME280;47692;53.714;11.372;2022-11-20T10:00:17;100310.25;;;-0.30;100.00
61786;BME280;47692;53.714;11.372;2022-11-20T10:13:40;100312.41;;;0.00;100.00
61786;BME280;47692;53.714;11.372;2022-11-20T10:19:11;100308.16;;;0.04;100.00
61786;BME280;47692;53.714;11.372;2022-11-20T10:24:37;100302.09;;;-0.02;100.00
61786;BME280;47692;53.714;11.372;2022-11-20T10:30:01;100297.88;;;0.04;100.00
61786;BME280;47692;53.714;11.372;2022-11-20T10:32:35;100309.06;;;0.07;100.00
61786;BME280;47692;53.714;11.372;2022-11-20T10:35:06;100311.84;;;0.21;100.00
61786;BME280;47692;53.714;11.372;2022-11-20T10:37:42;100313.59;;;0.27;100.00
61786;BME280;47692;53.714;11.372;2022-11-20T10:42:56;100309.41;;;0.34;100.00
61786;BME280;47692;53.714;11.372;2022-11-20T10:47:52;100303.34;;;0.27;100.00
61786;BME280;47692;53.714;11.372;2022-11-20T10:50:20;100299.88;;;0.23;100.00
61786;BME280;47692;53.714;11.372;2022-11-20T10:53:04;100300.69;;;0.22;100.00
61786;BME280;47692;53.714;11.372;2022-11-20T10:58:52;100302.50;;;0.29;100.00
61786;BME280;47692;53.714;11.372;2022-11-20T11:01:11;100303.41;;;0.33;100.00
61786;BME280;47692;53.714;11.372;2022-11-20T11:03:38;100304.16;;;0.24;100.00
61786;BME280;47692;53.714;11.372;2022-11-20T11:06:14;100299.94;;;0.29;100.00
61786;BME280;47692;53.714;11.372;2022-11-20T11:08:42;100298.38;;;0.41;100.00
61786;BME280;47692;53.714;11.372;2022-11-20T11:11:21;100299.50;;;0.64;100.00
61786;BME280;47692;53.714;11.372;2022-11-20T11:13:48;100294.53;;;0.82;100.00
61786;BME280;47692;53.714;11.372;2022-11-20T11:18:46;100290.75;;;1.33;100.00
61786;BME280;47692;53.714;11.372;2022-11-20T11:21:12;100286.50;;;1.43;100.00
61786;BME280;47692;53.714;11.372;2022-11-20T11:23:42;100279.75;;;1.54;100.00
61786;BME280;47692;53.714;11.372;2022-11-20T11:26:22;100270.22;;;1.44;100.00
61786;BME280;47692;53.714;11.372;2022-11-20T11:28:56;100274.44;;;1.33;100.00
61786;BME280;47692;53.714;11.372;2022-11-20T11:31:32;100274.28;;;1.14;100.00
61786;BME280;47692;53.714;11.372;2022-11-20T11:34:14;100270.75;;;1.03;100.00
61786;BME280;47692;53.714;11.372;2022-11-20T11:36:40;100271.59;;;1.02;100.00
61786;BME280;47692;53.714;11.372;2022-11-20T11:39:11;100270.63;;;0.90;100.00
61786;BME280;47692;53.714;11.372;2022-11-20T11:41:40;100274.00;;;0.83;100.00
61786;BME280;47692;53.714;11.372;2022-11-20T11:44:28;100261.97;;;0.82;100.00
61786;BME280;47692;53.714;11.372;2022-11-20T11:47:25;100264.47;;;0.73;100.00
61786;BME280;47692;53.714;11.372;2022-11-20T11:55:09;100252.31;;;0.58;100.00
61786;BME280;47692;53.714;11.372;2022-11-20T12:00:16;100254.06;;;0.60;100.00
61786;BME280;47692;53.714;11.372;2022-11-20T12:05:34;100247.22;;;0.61;100.00
61786;BME280;47692;53.714;11.372;2022-11-20T12:10:58;100251.56;;;0.67;100.00
61786;BME280;47692;53.714;11.372;2022-11-20T12:13:30;100232.72;;;0.68;100.00
61786;BME280;47692;53.714;11.372;2022-11-20T12:16:04;100241.25;;;0.63;100.00
61786;BME280;47692;53.714;11.372;2022-11-20T12:18:30;100239.56;;;0.66;100.00
61786;BME280;47692;53.714;11.372;2022-11-20T12:29:26;100248.78;;;0.48;100.00
61786;BME280;47692;53.714;11.372;2022-11-20T12:32:05;100237.69;;;0.49;100.00
61786;BME280;47692;53.714;11.372;2022-11-20T12:37:52;100231.72;;;0.53;100.00
61786;BME280;47692;53.714;11.372;2022-11-20T12:40:35;100230.88;;;0.51;100.00
61786;BME280;47692;53.714;11.372;2022-11-20T12:43:26;100228.31;;;0.56;100.00
61786;BME280;47692;53.714;11.372;2022-11-20T12:52:17;100227.53;;;0.61;100.00
61786;BME280;47692;53.714;11.372;2022-11-20T12:57:42;100233.31;;;0.40;100.00
61786;BME280;47692;53.714;11.372;2022-11-20T13:00:20;100232.41;;;0.37;100.00
61786;BME280;47692;53.714;11.372;2022-11-20T13:08:23;100234.06;;;0.30;100.00
61786;BME280;47692;53.714;11.372;2022-11-20T13:10:56;100225.47;;;0.29;100.00
61786;BME280;47692;53.714;11.372;2022-11-20T13:13:35;100221.22;;;0.31;100.00
61786;BME280;47692;53.714;11.372;2022-11-20T13:16:14;100217.78;;;0.29;100.00
61786;BME280;47692;53.714;11.372;2022-11-20T13:18:41;100219.56;;;0.37;100.00
61786;BME280;47692;53.714;11.372;2022-11-20T13:21:20;100220.47;;;0.39;100.00
61786;BME280;47692;53.714;11.372;2022-11-20T13:23:46;100224.75;;;0.41;100.00
61786;BME280;47692;53.714;11.372;2022-11-20T13:26:16;100208.41;;;0.35;100.00
61786;BME280;47692;53.714;11.372;2022-11-20T13:28:42;100213.53;;;0.35;100.00
61786;BME280;47692;53.714;11.372;2022-11-20T13:31:28;100202.34;;;0.26;100.00
61786;BME280;47692;53.714;11.372;2022-11-20T13:33:55;100201.47;;;0.24;100.00
61786;BME280;47692;53.714;11.372;2022-11-20T13:36:24;100199.78;;;0.26;100.00
61786;BME280;47692;53.714;11.372;2022-11-20T13:38:52;100194.53;;;0.19;100.00
61786;BME280;47692;53.714;11.372;2022-11-20T13:41:33;100186.69;;;0.06;100.00
61786;BME280;47692;53.714;11.372;2022-11-20T13:46:43;100187.56;;;0.07;100.00
61786;BME280;47692;53.714;11.372;2022-11-20T13:49:33;100190.91;;;-0.01;100.00
61786;BME280;47692;53.714;11.372;2022-11-20T13:55:05;100192.66;;;0.04;100.00
61786;BME280;47692;53.714;11.372;2022-11-20T13:57:39;100194.44;;;0.08;100.00
61786;BME280;47692;53.714;11.372;2022-11-20T14:00:15;100187.50;;;0.04;100.00
61786;BME280;47692;53.714;11.372;2022-11-20T14:02:41;100190.97;;;0.06;100.00